createdAt,value
2018-07-17T00:05:51.521Z,18.40
2018-07-17T00:08:22.102Z,18.40
2018-07-17T00:10:52.781Z,18.50
2018-07-17T00:13:23.375Z,18.50
2018-07-17T00:15:53.926Z,18.40
2018-07-17T00:18:24.365Z,18.40
2018-07-17T00:20:55.023Z,18.40
2018-07-17T00:23:25.987Z,18.30
2018-07-17T00:25:57.081Z,18.30
2018-07-17T00:28:27.503Z,18.30
2018-07-17T00:30:58.011Z,18.30
2018-07-17T00:33:28.630Z,18.30
2018-07-17T00:35:59.141Z,18.20
2018-07-17T00:38:29.684Z,18.20
2018-07-17T00:41:00.345Z,18.20
2018-07-17T00:43:31.378Z,18.10
2018-07-17T00:46:02.516Z,18.00
2018-07-17T00:48:33.186Z,18.00
2018-07-17T00:51:03.737Z,18.00
2018-07-17T00:53:34.234Z,17.90
2018-07-17T00:56:04.870Z,17.90
2018-07-17T00:58:35.225Z,18.00
2018-07-17T01:01:04.809Z,18.00
2018-07-17T01:03:40.580Z,18.00
2018-07-17T01:06:16.409Z,18.00
2018-07-17T01:08:51.902Z,18.00
2018-07-17T01:11:27.597Z,18.00
2018-07-17T01:14:04.205Z,18.00
2018-07-17T01:16:34.749Z,18.00
2018-07-17T01:19:05.475Z,18.00
2018-07-17T01:21:36.174Z,18.00
2018-07-17T01:24:06.920Z,18.00
2018-07-17T01:26:37.444Z,18.00
2018-07-17T01:29:08.683Z,17.90
2018-07-17T01:31:39.734Z,17.90
2018-07-17T01:34:10.303Z,17.90
2018-07-17T01:36:40.750Z,18.00
2018-07-17T01:39:11.493Z,18.00
2018-07-17T01:41:42.091Z,18.10
2018-07-17T01:44:15.876Z,18.10
2018-07-17T01:46:48.146Z,18.10
2018-07-17T01:49:19.633Z,18.00
2018-07-17T01:51:50.088Z,18.00
2018-07-17T01:54:20.452Z,18.00
2018-07-17T01:59:21.070Z,18.10
2018-07-17T02:04:21.674Z,18.10
2018-07-17T02:06:53.000Z,18.10
2018-07-17T02:09:23.782Z,18.10
2018-07-17T02:14:24.362Z,18.10
2018-07-17T02:16:54.931Z,18.00
2018-07-17T02:19:25.451Z,17.90
2018-07-17T02:21:55.898Z,17.90
2018-07-17T02:24:26.580Z,17.90
2018-07-17T02:26:58.006Z,17.90
2018-07-17T02:29:28.733Z,17.90
2018-07-17T02:31:59.313Z,17.90
2018-07-17T02:34:29.767Z,17.90
2018-07-17T02:37:00.340Z,18.00
2018-07-17T02:39:30.826Z,18.00
2018-07-17T02:42:01.364Z,18.00
2018-07-17T02:44:32.240Z,18.00
2018-07-17T02:47:03.549Z,18.00
2018-07-17T02:52:04.535Z,18.00
2018-07-17T02:54:35.360Z,17.90
2018-07-17T02:57:05.884Z,17.80
2018-07-17T02:59:36.387Z,17.80
2018-07-17T03:02:06.986Z,17.80
2018-07-17T03:04:37.795Z,17.80
2018-07-17T03:07:08.893Z,17.80
2018-07-17T03:09:39.586Z,17.80
2018-07-17T03:12:10.258Z,17.70
2018-07-17T03:14:40.907Z,17.70
2018-07-17T03:17:11.396Z,17.70
2018-07-17T03:19:42.065Z,17.70
2018-07-17T03:22:12.500Z,17.60
2018-07-17T03:24:43.957Z,17.60
2018-07-17T03:27:14.802Z,17.60
2018-07-17T03:29:45.438Z,17.70
2018-07-17T03:34:46.092Z,17.60
2018-07-17T03:37:16.715Z,17.60
2018-07-17T03:39:47.362Z,17.60
2018-07-17T03:42:17.903Z,17.60
2018-07-17T03:44:49.161Z,17.60
2018-07-17T03:47:20.028Z,17.60
2018-07-17T03:49:50.585Z,17.60
2018-07-17T03:52:21.327Z,17.60
2018-07-17T03:54:51.973Z,17.60
2018-07-17T03:57:22.793Z,17.50
2018-07-17T03:59:53.396Z,17.60
2018-07-17T04:02:24.031Z,17.50
2018-07-17T04:04:55.702Z,17.60
2018-07-17T04:09:56.465Z,17.60
2018-07-17T04:12:27.157Z,17.60
2018-07-17T04:14:58.085Z,17.60
2018-07-17T04:19:59.029Z,17.60
2018-07-17T04:22:30.890Z,17.70
2018-07-17T04:25:02.146Z,17.60
2018-07-17T04:27:32.786Z,17.60
2018-07-17T04:30:03.844Z,17.60
2018-07-17T04:35:04.623Z,17.50
2018-07-17T04:37:35.722Z,17.60
2018-07-17T04:40:07.066Z,17.60
2018-07-17T04:47:38.786Z,17.60
2018-07-17T04:50:09.213Z,17.70
2018-07-17T04:52:39.936Z,17.70
2018-07-17T04:55:10.738Z,17.70
2018-07-17T04:57:41.420Z,17.80
2018-07-17T05:00:12.189Z,17.90
2018-07-17T05:02:43.522Z,17.90
2018-07-17T05:05:14.469Z,17.90
2018-07-17T05:07:45.078Z,18.00
2018-07-17T05:10:15.557Z,18.00
2018-07-17T05:12:46.210Z,18.10
2018-07-17T05:15:16.999Z,18.20
2018-07-17T05:20:18.016Z,18.30
2018-07-17T05:22:49.579Z,18.40
2018-07-17T05:25:20.091Z,18.50
2018-07-17T05:27:51.064Z,18.60
2018-07-17T05:30:21.811Z,18.70
2018-07-17T05:32:52.415Z,18.70
2018-07-17T05:35:22.974Z,18.80
2018-07-17T05:37:53.644Z,18.90
2018-07-17T05:40:24.887Z,19.00
2018-07-17T05:42:55.838Z,19.00
2018-07-17T05:45:26.458Z,19.10
2018-07-17T05:47:57.130Z,19.10
2018-07-17T05:50:27.782Z,19.20
2018-07-17T05:52:58.445Z,19.30
2018-07-17T05:55:29.264Z,19.40
2018-07-17T06:00:31.557Z,19.70
2018-07-17T06:03:02.402Z,19.70
2018-07-17T06:05:34.388Z,19.90
2018-07-17T06:08:04.903Z,20.00
2018-07-17T06:10:35.489Z,20.10
2018-07-17T06:13:06.032Z,20.20
2018-07-17T06:15:37.397Z,20.30
2018-07-17T06:18:08.300Z,20.40
2018-07-17T06:23:10.769Z,20.80
2018-07-17T06:25:41.398Z,21.20
2018-07-17T06:28:12.488Z,21.60
2018-07-17T06:30:43.136Z,22.00
2018-07-17T06:33:13.922Z,22.30
2018-07-17T06:35:44.501Z,22.60
2018-07-17T06:38:15.784Z,23.00
2018-07-17T06:40:46.651Z,23.30
2018-07-17T06:43:17.239Z,23.40
2018-07-17T06:45:47.870Z,23.60
2018-07-17T06:48:19.233Z,23.80
2018-07-17T06:50:49.989Z,24.00
2018-07-17T06:53:20.839Z,24.00
2018-07-17T06:55:51.883Z,24.10
2018-07-17T06:58:23.804Z,24.20
2018-07-17T07:00:54.434Z,24.30
2018-07-17T07:03:25.216Z,24.50
2018-07-17T07:05:56.266Z,24.70
2018-07-17T07:08:27.216Z,24.90
2018-07-17T07:10:58.821Z,24.90
2018-07-17T07:16:01.914Z,25.30
2018-07-17T07:18:33.384Z,25.60
2018-07-17T07:21:04.096Z,25.80
2018-07-17T07:23:35.655Z,25.90
2018-07-17T07:26:07.134Z,25.60
2018-07-17T07:28:37.942Z,25.60
2018-07-17T07:31:08.953Z,25.60
2018-07-17T07:36:11.428Z,25.10
2018-07-17T07:38:42.273Z,24.70
2018-07-17T07:41:12.862Z,24.90
2018-07-17T07:43:44.454Z,25.00
2018-07-17T07:48:45.792Z,25.30
2018-07-17T07:51:18.831Z,25.50
2018-07-17T07:53:56.202Z,25.70
2018-07-17T07:56:27.238Z,26.10
2018-07-17T07:58:59.030Z,26.10
2018-07-17T08:01:29.825Z,26.50
2018-07-17T08:04:00.720Z,26.90
2018-07-17T08:06:32.530Z,27.30
2018-07-17T08:09:03.897Z,27.70
2018-07-17T08:11:35.424Z,28.00
2018-07-17T08:14:06.028Z,28.20
2018-07-17T08:16:36.845Z,28.50
2018-07-17T08:19:07.909Z,28.60
2018-07-17T08:21:38.721Z,28.80
2018-07-17T08:24:09.838Z,28.70
2018-07-17T08:26:41.523Z,28.90
2018-07-17T08:29:12.526Z,29.00
2018-07-17T08:31:45.685Z,29.00
2018-07-17T08:34:16.662Z,29.10
2018-07-17T08:36:47.514Z,29.30
2018-07-17T08:39:18.437Z,29.00
2018-07-17T08:41:49.613Z,29.30
2018-07-17T08:44:21.324Z,29.30
2018-07-17T08:46:52.042Z,29.40
2018-07-17T08:49:23.374Z,29.50
2018-07-17T08:51:54.098Z,29.60
2018-07-17T08:54:24.790Z,29.00
2018-07-17T08:56:57.781Z,28.90
2018-07-17T08:59:28.791Z,29.10
2018-07-17T09:02:00.637Z,28.70
2018-07-17T09:04:31.146Z,28.60
2018-07-17T09:07:02.545Z,28.30
2018-07-17T09:09:33.644Z,28.10
2018-07-17T09:12:04.533Z,28.50
2018-07-17T09:14:35.082Z,29.00
2018-07-17T09:17:05.710Z,29.40
2018-07-17T09:19:37.455Z,29.20
2018-07-17T09:22:09.330Z,29.10
2018-07-17T09:24:40.941Z,29.60
2018-07-17T09:27:17.358Z,30.30
2018-07-17T09:30:14.372Z,30.40
2018-07-17T09:32:45.471Z,30.00
2018-07-17T09:37:47.325Z,29.70
2018-07-17T09:40:28.125Z,29.90
2018-07-17T09:42:59.655Z,30.40
2018-07-17T09:45:30.628Z,30.90
2018-07-17T09:48:01.557Z,31.40
2018-07-17T09:50:34.522Z,31.40
2018-07-17T09:53:06.173Z,30.70
2018-07-17T09:55:38.280Z,30.40
2018-07-17T09:58:11.184Z,31.00
2018-07-17T10:00:47.174Z,31.40
2018-07-17T10:03:18.351Z,31.60
2018-07-17T10:05:49.428Z,31.10
2018-07-17T10:08:20.410Z,30.60
2018-07-17T10:10:53.455Z,31.00
2018-07-17T10:13:25.703Z,30.80
2018-07-17T10:15:56.583Z,30.30
2018-07-17T10:18:27.257Z,30.20
2018-07-17T10:20:58.467Z,30.60
2018-07-17T10:23:29.096Z,31.30
2018-07-17T10:26:00.142Z,31.60
2018-07-17T10:28:31.013Z,31.50
2018-07-17T10:31:02.680Z,31.50
2018-07-17T10:33:33.943Z,31.40
2018-07-17T10:36:05.377Z,30.90
2018-07-17T10:41:08.454Z,31.30
2018-07-17T10:43:40.295Z,32.10
2018-07-17T10:46:10.897Z,32.40
2018-07-17T10:48:42.369Z,32.40
2018-07-17T10:51:13.361Z,32.90
2018-07-17T10:53:44.116Z,33.40
2018-07-17T10:56:15.463Z,33.50
2018-07-17T10:58:46.120Z,33.90
2018-07-17T11:01:17.154Z,34.10
2018-07-17T11:03:47.757Z,34.10
2018-07-17T11:06:20.456Z,34.40
2018-07-17T11:08:52.055Z,34.70
2018-07-17T11:11:22.677Z,34.60
2018-07-17T11:13:56.230Z,34.30
2018-07-17T11:16:26.914Z,34.40
2018-07-17T11:18:57.677Z,34.40
2018-07-17T11:21:28.354Z,34.40
2018-07-17T11:24:00.212Z,34.30
2018-07-17T11:26:32.173Z,34.50
2018-07-17T11:29:02.818Z,34.50
2018-07-17T11:31:33.878Z,34.40
2018-07-17T11:34:04.883Z,34.70
2018-07-17T11:36:35.427Z,35.00
2018-07-17T11:39:08.004Z,34.70
2018-07-17T11:41:39.312Z,34.50
2018-07-17T11:46:41.890Z,34.40
2018-07-17T11:49:12.552Z,34.50
2018-07-17T11:51:43.257Z,34.70
2018-07-17T11:56:45.215Z,34.80
2018-07-17T11:59:17.573Z,34.80
2018-07-17T12:01:50.067Z,35.10
2018-07-17T12:04:21.567Z,35.30
2018-07-17T12:06:52.692Z,34.60
2018-07-17T12:11:57.143Z,35.00
2018-07-17T12:14:30.550Z,34.80
2018-07-17T12:17:05.240Z,35.00
2018-07-17T12:19:38.881Z,34.70
2018-07-17T12:22:12.945Z,35.10
2018-07-17T12:24:45.203Z,35.70
2018-07-17T12:27:25.176Z,35.70
2018-07-17T12:30:11.773Z,34.90
2018-07-17T12:32:45.889Z,35.00
2018-07-17T12:35:16.778Z,35.20
2018-07-17T12:37:49.812Z,34.90
2018-07-17T12:40:21.123Z,35.00
2018-07-17T12:42:54.077Z,34.90
2018-07-17T12:45:25.361Z,34.30
2018-07-17T12:47:58.768Z,34.60
2018-07-17T12:50:33.109Z,34.40
2018-07-17T12:53:04.583Z,34.70
2018-07-17T12:55:35.657Z,35.10
2018-07-17T12:58:07.173Z,35.20
2018-07-17T13:00:38.185Z,35.10
2018-07-17T13:03:10.426Z,34.80
2018-07-17T13:05:42.041Z,34.80
2018-07-17T13:08:19.613Z,34.80
2018-07-17T13:10:53.112Z,35.20
2018-07-17T13:13:27.094Z,35.60
2018-07-17T13:15:58.661Z,35.30
2018-07-17T13:18:29.555Z,35.90
2018-07-17T13:21:00.425Z,35.80
2018-07-17T13:23:33.560Z,35.60
2018-07-17T13:26:04.130Z,35.50
2018-07-17T13:28:34.880Z,35.60
2018-07-17T13:31:05.944Z,35.70
2018-07-17T13:33:36.784Z,35.40
2018-07-17T13:36:07.657Z,35.30
2018-07-17T13:38:39.638Z,34.90
2018-07-17T13:41:11.902Z,35.10
2018-07-17T13:43:43.837Z,35.10
2018-07-17T13:46:15.491Z,35.30
2018-07-17T13:48:46.125Z,35.40
2018-07-17T13:51:17.054Z,35.50
2018-07-17T13:53:48.145Z,35.60
2018-07-17T13:56:20.503Z,35.30
2018-07-17T13:58:52.905Z,35.10
2018-07-17T14:01:24.089Z,35.30
2018-07-17T14:03:55.645Z,35.10
2018-07-17T14:06:27.109Z,35.40
2018-07-17T14:08:58.811Z,35.40
2018-07-17T14:11:30.307Z,35.30
2018-07-17T14:14:01.372Z,35.40
2018-07-17T14:16:34.201Z,35.30
2018-07-17T14:19:05.977Z,35.40
2018-07-17T14:21:37.266Z,35.20
2018-07-17T14:24:08.450Z,35.10
2018-07-17T14:26:42.601Z,35.10
2018-07-17T14:29:15.144Z,34.70
2018-07-17T14:31:48.624Z,34.40
2018-07-17T14:34:19.539Z,34.40
2018-07-17T14:36:50.722Z,34.50
2018-07-17T14:39:24.274Z,34.60
2018-07-17T14:41:55.323Z,34.70
2018-07-17T14:44:26.099Z,34.60
2018-07-17T14:49:38.975Z,34.70
2018-07-17T14:52:11.032Z,34.70
2018-07-17T14:57:15.400Z,34.60
2018-07-17T14:59:50.102Z,34.40
2018-07-17T15:02:21.469Z,34.50
2018-07-17T15:04:52.094Z,34.60
2018-07-17T15:07:23.185Z,34.50
2018-07-17T15:09:54.538Z,34.30
2018-07-17T15:12:25.453Z,34.10
2018-07-17T15:17:28.546Z,34.10
2018-07-17T15:19:59.846Z,33.90
2018-07-17T15:22:31.771Z,33.90
2018-07-17T15:25:02.452Z,33.60
2018-07-17T15:27:33.227Z,33.50
2018-07-17T15:30:04.277Z,33.40
2018-07-17T15:32:35.619Z,33.20
2018-07-17T15:35:07.589Z,33.00
2018-07-17T15:37:41.031Z,32.90
2018-07-17T15:40:12.237Z,33.00
2018-07-17T15:42:46.591Z,33.10
2018-07-17T15:45:19.200Z,33.10
2018-07-17T15:47:55.175Z,33.00
2018-07-17T15:50:26.140Z,33.00
2018-07-17T15:52:57.071Z,33.00
2018-07-17T15:55:27.869Z,33.00
2018-07-17T15:57:58.479Z,32.90
2018-07-17T16:00:29.549Z,32.80
2018-07-17T16:03:00.373Z,32.70
2018-07-17T16:08:02.873Z,32.60
2018-07-17T16:10:34.069Z,32.50
2018-07-17T16:13:06.241Z,32.50
2018-07-17T16:15:37.308Z,32.50
2018-07-17T16:20:38.793Z,32.50
2018-07-17T16:23:10.811Z,32.30
2018-07-17T16:25:44.134Z,32.20
2018-07-17T16:28:16.116Z,32.20
2018-07-17T16:30:46.864Z,32.10
2018-07-17T16:33:17.538Z,32.00
2018-07-17T16:35:48.340Z,31.90
2018-07-17T16:38:18.968Z,31.90
2018-07-17T16:40:51.890Z,32.00
2018-07-17T16:43:22.780Z,32.00
2018-07-17T16:45:53.680Z,32.00
2018-07-17T16:48:24.500Z,31.90
2018-07-17T16:50:56.541Z,31.80
2018-07-17T16:53:27.983Z,31.80
2018-07-17T16:55:58.720Z,31.70
2018-07-17T16:58:30.436Z,31.60
2018-07-17T17:01:02.069Z,31.50
2018-07-17T17:03:33.089Z,31.50
2018-07-17T17:06:04.487Z,31.50
2018-07-17T17:08:35.343Z,31.50
2018-07-17T17:11:06.635Z,31.40
2018-07-17T17:13:38.023Z,31.40
2018-07-17T17:16:10.477Z,31.40
2018-07-17T17:18:42.212Z,31.30
2018-07-17T17:23:43.566Z,31.20
2018-07-17T17:26:16.174Z,31.10
2018-07-17T17:28:48.505Z,31.10
2018-07-17T17:31:21.322Z,31.00
2018-07-17T17:33:54.719Z,31.00
2018-07-17T17:36:28.638Z,30.90
2018-07-17T17:39:02.966Z,30.80
2018-07-17T17:41:34.014Z,30.70
2018-07-17T17:46:47.528Z,30.50
2018-07-17T17:49:18.626Z,30.40
2018-07-17T17:51:52.066Z,29.80
2018-07-17T17:54:23.490Z,29.60
2018-07-17T17:56:55.572Z,29.40
2018-07-17T17:59:30.386Z,29.00
2018-07-17T18:02:05.209Z,28.70
2018-07-17T18:04:48.710Z,28.30
2018-07-17T18:07:29.702Z,27.90
2018-07-17T18:12:44.637Z,27.40
2018-07-17T18:15:18.571Z,27.20
2018-07-17T18:17:51.294Z,27.00
2018-07-17T18:20:29.334Z,26.50
2018-07-17T18:23:01.076Z,26.20
2018-07-17T18:25:33.885Z,26.10
2018-07-17T18:28:09.463Z,26.10
2018-07-17T18:30:43.877Z,26.10
2018-07-17T18:33:15.846Z,26.10
2018-07-17T18:35:48.307Z,26.10
2018-07-17T18:38:20.515Z,26.00
2018-07-17T18:40:56.587Z,26.00
2018-07-17T18:43:29.608Z,25.90
2018-07-17T18:46:01.501Z,25.80
2018-07-17T18:48:35.523Z,25.80
2018-07-17T18:51:08.101Z,25.70
2018-07-17T18:53:41.308Z,25.60
2018-07-17T18:56:15.310Z,25.50
2018-07-17T18:58:47.396Z,25.30
2018-07-17T19:01:19.398Z,25.20
2018-07-17T19:03:51.332Z,25.10
2018-07-17T19:06:23.639Z,24.90
2018-07-17T19:08:55.781Z,24.80
2018-07-17T19:11:29.344Z,24.70
2018-07-17T19:14:01.478Z,24.40
2018-07-17T19:16:34.053Z,24.30
2018-07-17T19:19:07.587Z,24.10
2018-07-17T19:21:39.833Z,24.00
2018-07-17T19:24:15.402Z,24.00
2018-07-17T19:26:47.562Z,23.80
2018-07-17T19:29:19.886Z,23.80
2018-07-17T19:31:52.234Z,23.80
2018-07-17T19:34:24.318Z,23.70
2018-07-17T19:36:56.980Z,23.60
2018-07-17T19:39:30.466Z,23.50
2018-07-17T19:42:02.583Z,23.50
2018-07-17T19:44:35.125Z,23.50
2018-07-17T19:47:07.197Z,23.40
2018-07-17T19:49:39.331Z,23.40
2018-07-17T19:52:11.837Z,23.30
2018-07-17T19:54:45.655Z,23.30
2018-07-17T19:57:18.057Z,23.20
2018-07-17T19:59:51.056Z,23.20
2018-07-17T20:02:23.554Z,23.10
2018-07-17T20:04:55.946Z,23.10
2018-07-17T20:07:29.457Z,23.00
2018-07-17T20:10:03.260Z,22.90
2018-07-17T20:12:36.141Z,22.60
2018-07-17T20:15:08.546Z,22.50
2018-07-17T20:17:42.238Z,22.40
2018-07-17T20:20:16.380Z,22.20
2018-07-17T20:22:50.628Z,22.10
2018-07-17T20:25:22.595Z,22.10
2018-07-17T20:27:56.576Z,22.10
2018-07-17T20:30:29.575Z,22.10
2018-07-17T20:33:02.517Z,22.10
2018-07-17T20:35:35.732Z,22.00
2018-07-17T20:38:07.893Z,22.00
2018-07-17T20:43:12.715Z,21.80
2018-07-17T20:45:49.264Z,21.70
2018-07-17T20:48:23.901Z,21.70
2018-07-17T20:50:58.600Z,21.60
2018-07-17T20:53:31.671Z,21.50
2018-07-17T20:56:04.355Z,21.60
2018-07-17T20:58:41.679Z,21.60
2018-07-17T21:01:16.746Z,21.60
2018-07-17T21:03:48.069Z,21.60
2018-07-17T21:06:19.578Z,21.60
2018-07-17T21:08:54.319Z,21.50
2018-07-17T21:11:26.765Z,21.50
2018-07-17T21:13:59.851Z,21.40
2018-07-17T21:16:31.870Z,21.40
2018-07-17T21:19:04.679Z,21.40
2018-07-17T21:21:38.282Z,21.40
2018-07-17T21:24:09.977Z,21.40
2018-07-17T21:26:41.423Z,21.30
2018-07-17T21:29:15.970Z,21.30
2018-07-17T21:31:47.854Z,21.00
2018-07-17T21:36:52.822Z,20.90
2018-07-17T21:39:25.404Z,20.80
2018-07-17T21:42:00.251Z,20.70
2018-07-17T21:44:32.244Z,20.70
2018-07-17T21:47:06.354Z,20.60
2018-07-17T21:49:40.295Z,20.60
2018-07-17T21:52:13.285Z,20.50
2018-07-17T21:54:46.963Z,20.50
2018-07-17T21:57:20.425Z,20.50
2018-07-17T21:59:55.056Z,20.50
2018-07-17T22:02:28.794Z,20.50
2018-07-17T22:07:32.064Z,20.50
2018-07-17T22:10:04.721Z,20.50
2018-07-17T22:12:36.691Z,20.50
2018-07-17T22:15:09.985Z,20.40
2018-07-17T22:17:41.565Z,20.30
2018-07-17T22:20:13.934Z,20.30
2018-07-17T22:22:51.607Z,20.30
2018-07-17T22:25:23.617Z,20.30
2018-07-17T22:27:56.210Z,20.30
2018-07-17T22:30:28.670Z,20.30
2018-07-17T22:33:02.052Z,20.30
2018-07-17T22:38:06.501Z,20.30
2018-07-17T22:40:41.400Z,20.20
2018-07-17T22:43:14.343Z,20.10
2018-07-17T22:45:47.709Z,20.00
2018-07-17T22:48:20.077Z,20.00
2018-07-17T22:50:51.753Z,20.00
2018-07-17T22:53:24.477Z,19.90
2018-07-17T22:56:01.146Z,19.80
2018-07-17T22:58:35.234Z,19.70
2018-07-17T23:01:14.713Z,19.70
2018-07-17T23:03:50.378Z,19.80
2018-07-17T23:06:23.299Z,19.70
2018-07-17T23:08:58.479Z,19.80
2018-07-17T23:11:29.808Z,19.80
2018-07-17T23:14:03.363Z,19.80
2018-07-17T23:16:34.815Z,19.80
2018-07-17T23:19:09.382Z,19.80
2018-07-17T23:21:41.262Z,19.70
2018-07-17T23:24:12.226Z,19.70
2018-07-17T23:26:42.880Z,19.70
2018-07-17T23:29:14.341Z,19.50
2018-07-17T23:31:50.241Z,19.40
2018-07-17T23:34:23.547Z,19.30
2018-07-17T23:39:26.342Z,19.30
2018-07-17T23:41:57.015Z,19.30
2018-07-17T23:44:29.190Z,19.30
2018-07-17T23:47:00.218Z,19.30
2018-07-17T23:49:38.317Z,19.20
2018-07-17T23:52:09.539Z,19.30
2018-07-17T23:54:40.587Z,19.20
2018-07-17T23:57:12.008Z,19.10
2018-07-17T23:59:43.539Z,19.00
